createdAt,value
2018-07-23T00:00:02.225Z,14.50
2018-07-23T00:02:31.707Z,12.20
2018-07-23T00:05:00.708Z,11.53
2018-07-23T00:07:29.683Z,11.70
2018-07-23T00:09:58.676Z,11.10
2018-07-23T00:12:27.656Z,12.23
2018-07-23T00:14:56.986Z,12.40
2018-07-23T00:17:25.944Z,12.07
2018-07-23T00:19:54.930Z,11.70
2018-07-23T00:22:23.932Z,10.40
2018-07-23T00:24:52.998Z,10.83
2018-07-23T00:27:21.996Z,11.47
2018-07-23T00:29:51.046Z,11.10
2018-07-23T00:32:20.057Z,11.20
2018-07-23T00:34:49.067Z,10.50
2018-07-23T00:37:18.038Z,9.50
2018-07-23T00:39:47.069Z,9.50
2018-07-23T00:42:16.141Z,9.53
2018-07-23T00:44:46.082Z,8.93
2018-07-23T00:47:15.045Z,9.77
2018-07-23T00:49:44.277Z,11.13
2018-07-23T00:52:13.254Z,8.63
2018-07-23T00:54:42.455Z,8.77
2018-07-23T00:57:11.423Z,9.47
2018-07-23T00:59:40.520Z,9.57
2018-07-23T01:02:09.562Z,10.53
2018-07-23T01:04:38.532Z,8.97
2018-07-23T01:07:07.653Z,8.57
2018-07-23T01:09:36.624Z,8.03
2018-07-23T01:12:05.414Z,8.57
2018-07-23T01:14:34.389Z,8.10
2018-07-23T01:17:03.348Z,9.13
2018-07-23T01:19:32.800Z,7.07
2018-07-23T01:22:01.851Z,7.77
2018-07-23T01:24:30.916Z,7.10
2018-07-23T01:26:59.952Z,7.57
2018-07-23T01:29:29.009Z,7.23
2018-07-23T01:31:58.007Z,6.83
2018-07-23T01:34:27.008Z,7.10
2018-07-23T01:36:55.717Z,6.80
2018-07-23T01:39:24.618Z,6.93
2018-07-23T01:41:53.687Z,6.87
2018-07-23T01:44:22.711Z,6.57
2018-07-23T01:46:51.704Z,7.07
2018-07-23T01:49:20.711Z,8.00
2018-07-23T01:51:49.694Z,7.57
2018-07-23T01:54:18.762Z,8.40
2018-07-23T01:56:47.744Z,7.03
2018-07-23T01:59:16.901Z,7.67
2018-07-23T02:01:45.915Z,6.47
2018-07-23T02:04:14.936Z,7.07
2018-07-23T02:06:44.471Z,7.50
2018-07-23T02:09:14.004Z,8.67
2018-07-23T02:11:43.271Z,7.73
2018-07-23T02:14:12.245Z,8.60
2018-07-23T02:16:41.224Z,9.17
2018-07-23T02:19:10.328Z,7.37
2018-07-23T02:21:39.265Z,7.47
2018-07-23T02:24:08.265Z,7.70
2018-07-23T02:26:37.330Z,7.63
2018-07-23T02:29:06.332Z,8.87
2018-07-23T02:31:35.358Z,8.73
2018-07-23T02:34:04.346Z,8.77
2018-07-23T02:36:33.318Z,8.37
2018-07-23T02:39:02.323Z,8.60
2018-07-23T02:41:31.304Z,8.63
2018-07-23T02:44:00.430Z,9.43
2018-07-23T02:46:29.437Z,9.83
2018-07-23T02:48:58.091Z,8.97
2018-07-23T02:51:26.982Z,9.90
2018-07-23T02:53:55.964Z,10.50
2018-07-23T02:56:24.941Z,10.00
2018-07-23T02:58:54.000Z,10.03
2018-07-23T03:01:23.311Z,10.17
2018-07-23T03:03:56.110Z,9.60
2018-07-23T03:06:26.112Z,9.47
2018-07-23T03:08:55.218Z,9.20
2018-07-23T03:11:24.492Z,9.17
2018-07-23T03:13:53.776Z,12.10
2018-07-23T03:16:22.739Z,10.17
2018-07-23T03:18:52.095Z,9.73
2018-07-23T03:21:21.055Z,10.57
2018-07-23T03:23:50.019Z,11.20
2018-07-23T03:26:19.027Z,11.63
2018-07-23T03:28:48.474Z,10.20
2018-07-23T03:31:17.530Z,10.37
2018-07-23T03:33:46.587Z,10.63
2018-07-23T03:36:16.032Z,11.13
2018-07-23T03:38:44.960Z,12.73
2018-07-23T03:41:13.929Z,10.20
2018-07-23T03:43:42.927Z,9.53
2018-07-23T03:46:12.018Z,10.53
2018-07-23T03:48:41.152Z,10.50
2018-07-23T03:51:10.147Z,10.63
2018-07-23T03:53:39.113Z,11.40
2018-07-23T03:56:08.116Z,12.07
2018-07-23T03:58:37.083Z,11.17
2018-07-23T04:01:06.116Z,12.77
2018-07-23T04:03:35.169Z,10.27
2018-07-23T04:06:04.115Z,12.37
2018-07-23T04:08:33.167Z,10.40
2018-07-23T04:11:02.144Z,11.40
2018-07-23T04:13:31.156Z,11.13
2018-07-23T04:16:00.189Z,11.63
2018-07-23T04:18:29.220Z,11.50
2018-07-23T04:20:58.259Z,11.30
2018-07-23T04:23:27.335Z,11.90
2018-07-23T04:25:56.385Z,12.10
2018-07-23T04:28:25.419Z,12.67
2018-07-23T04:30:54.392Z,11.13
2018-07-23T04:33:23.411Z,10.20
2018-07-23T04:35:52.403Z,11.00
2018-07-23T04:38:21.414Z,11.33
2018-07-23T04:40:50.433Z,10.57
2018-07-23T04:43:19.505Z,11.30
2018-07-23T04:45:48.510Z,11.60
2018-07-23T04:48:17.463Z,13.83
2018-07-23T04:50:46.473Z,9.70
2018-07-23T04:53:15.457Z,11.53
2018-07-23T04:55:44.479Z,10.53
2018-07-23T04:58:13.455Z,10.57
2018-07-23T05:00:42.521Z,11.13
2018-07-23T05:03:11.499Z,11.73
2018-07-23T05:05:40.508Z,11.13
2018-07-23T05:08:09.216Z,10.07
2018-07-23T05:10:38.084Z,10.43
2018-07-23T05:13:07.204Z,10.57
2018-07-23T05:15:36.147Z,10.07
2018-07-23T05:18:05.120Z,9.67
2018-07-23T05:20:34.097Z,9.40
2018-07-23T05:23:03.125Z,9.33
2018-07-23T05:25:32.063Z,8.60
2018-07-23T05:28:01.101Z,9.47
2018-07-23T05:30:30.154Z,9.07
2018-07-23T05:32:59.115Z,9.97
2018-07-23T05:35:28.064Z,6.90
2018-07-23T05:37:56.799Z,7.17
2018-07-23T05:40:25.668Z,7.17
2018-07-23T05:42:54.749Z,7.67
2018-07-23T05:45:23.709Z,7.20
2018-07-23T05:47:52.739Z,6.83
2018-07-23T05:50:21.678Z,7.00
2018-07-23T05:52:50.671Z,5.93
2018-07-23T05:55:19.686Z,5.83
2018-07-23T05:57:48.710Z,6.90
2018-07-23T06:00:17.644Z,4.37
2018-07-23T06:02:46.752Z,4.40
2018-07-23T06:05:15.825Z,5.17
2018-07-23T06:07:44.774Z,5.00
2018-07-23T06:10:13.865Z,5.47
2018-07-23T06:12:43.593Z,4.83
2018-07-23T06:15:12.697Z,4.50
2018-07-23T06:17:41.679Z,4.43
2018-07-23T06:20:10.795Z,4.87
2018-07-23T06:22:39.833Z,4.60
2018-07-23T06:25:09.180Z,3.97
2018-07-23T06:27:39.062Z,4.47
2018-07-23T06:30:10.025Z,3.83
2018-07-23T06:32:39.112Z,5.20
2018-07-23T06:35:08.127Z,3.07
2018-07-23T06:37:37.144Z,6.57
2018-07-23T06:40:07.865Z,3.40
2018-07-23T06:42:36.879Z,3.00
2018-07-23T06:45:05.872Z,2.87
2018-07-23T06:47:34.906Z,2.30
2018-07-23T06:50:05.568Z,2.77
2018-07-23T06:52:34.636Z,3.03
2018-07-23T06:55:03.691Z,2.15
2018-07-23T06:57:32.853Z,2.23
2018-07-23T07:00:02.370Z,1.62
2018-07-23T07:02:31.302Z,1.37
2018-07-23T07:05:00.321Z,2.62
2018-07-23T07:07:29.280Z,2.47
2018-07-23T07:09:58.239Z,1.42
2018-07-23T07:12:27.245Z,1.95
2018-07-23T07:14:56.333Z,2.20
2018-07-23T07:17:25.287Z,1.60
2018-07-23T07:19:54.936Z,1.05
2018-07-23T07:22:23.972Z,1.50
2018-07-23T07:24:52.951Z,2.70
2018-07-23T07:27:21.905Z,1.83
2018-07-23T07:29:51.477Z,1.98
2018-07-23T07:32:20.529Z,1.30
2018-07-23T07:34:49.582Z,1.37
2018-07-23T07:37:18.598Z,1.25
2018-07-23T07:39:47.634Z,1.22
2018-07-23T07:42:16.610Z,1.72
2018-07-23T07:44:45.379Z,1.12
2018-07-23T07:47:14.428Z,1.52
2018-07-23T07:49:43.366Z,1.22
2018-07-23T07:52:12.344Z,1.22
2018-07-23T07:54:41.654Z,1.15
2018-07-23T07:57:10.717Z,1.10
2018-07-23T07:59:39.740Z,2.30
2018-07-23T08:02:08.833Z,2.50
2018-07-23T08:04:37.839Z,1.30
2018-07-23T08:07:06.849Z,1.75
2018-07-23T08:09:35.859Z,1.75
2018-07-23T08:12:04.817Z,2.15
2018-07-23T08:14:33.776Z,1.32
2018-07-23T08:17:02.795Z,1.27
2018-07-23T08:19:31.742Z,1.15
2018-07-23T08:22:00.728Z,1.22
2018-07-23T08:24:29.745Z,1.33
2018-07-23T08:26:58.403Z,1.67
2018-07-23T08:29:27.313Z,1.35
2018-07-23T08:31:56.472Z,1.40
2018-07-23T08:34:25.475Z,1.47
2018-07-23T08:36:54.615Z,1.07
2018-07-23T08:39:23.578Z,1.30
2018-07-23T08:41:52.592Z,1.50
2018-07-23T08:44:22.055Z,1.27
2018-07-23T08:46:51.135Z,1.10
2018-07-23T08:49:20.594Z,1.70
2018-07-23T08:51:49.546Z,1.17
2018-07-23T08:54:18.183Z,1.30
2018-07-23T08:56:47.665Z,2.05
2018-07-23T08:59:16.971Z,1.30
2018-07-23T09:01:45.929Z,1.20
2018-07-23T09:04:14.926Z,2.77
2018-07-23T09:06:43.930Z,2.58
2018-07-23T09:09:13.363Z,2.00
2018-07-23T09:11:42.360Z,1.37
2018-07-23T09:14:11.359Z,1.92
2018-07-23T09:16:40.376Z,1.17
2018-07-23T09:19:09.859Z,1.90
2018-07-23T09:21:38.945Z,1.27
2018-07-23T09:24:07.957Z,1.60
2018-07-23T09:26:36.945Z,2.35
2018-07-23T09:29:05.960Z,1.40
2018-07-23T09:31:35.014Z,1.02
2018-07-23T09:34:04.037Z,2.00
2018-07-23T09:36:33.152Z,1.00
2018-07-23T09:39:02.117Z,1.27
2018-07-23T09:41:31.167Z,1.40
2018-07-23T09:44:00.247Z,1.40
2018-07-23T09:46:29.261Z,1.20
2018-07-23T09:48:58.224Z,2.17
2018-07-23T09:51:27.195Z,2.35
2018-07-23T09:53:56.165Z,1.57
2018-07-23T09:56:25.124Z,1.27
2018-07-23T09:58:54.168Z,1.30
2018-07-23T10:01:23.159Z,1.42
2018-07-23T10:03:52.107Z,1.25
2018-07-23T10:06:21.131Z,1.47
2018-07-23T10:08:50.557Z,1.30
2018-07-23T10:11:20.116Z,1.37
2018-07-23T10:13:49.206Z,1.05
2018-07-23T10:16:18.215Z,1.47
2018-07-23T10:18:47.171Z,1.42
2018-07-23T10:21:16.167Z,1.30
2018-07-23T10:23:45.127Z,1.65
2018-07-23T10:26:14.170Z,1.70
2018-07-23T10:28:43.132Z,1.47
2018-07-23T10:31:12.093Z,2.90
2018-07-23T10:33:41.026Z,1.30
2018-07-23T10:36:10.015Z,1.07
2018-07-23T10:38:38.997Z,1.75
2018-07-23T10:41:08.064Z,1.50
2018-07-23T10:43:37.026Z,3.42
2018-07-23T10:46:06.632Z,2.33
2018-07-23T10:48:35.615Z,1.30
2018-07-23T10:51:04.703Z,2.80
2018-07-23T10:53:33.426Z,1.40
2018-07-23T10:56:02.388Z,1.47
2018-07-23T10:58:31.492Z,1.40
2018-07-23T11:01:00.684Z,1.60
2018-07-23T11:03:29.645Z,2.20
2018-07-23T11:05:58.759Z,4.40
2018-07-23T11:08:27.805Z,1.82
2018-07-23T11:10:56.863Z,1.70
2018-07-23T11:13:25.972Z,1.60
2018-07-23T11:15:55.019Z,1.60
2018-07-23T11:18:24.020Z,2.33
2018-07-23T11:20:53.013Z,1.90
2018-07-23T11:23:22.119Z,1.60
2018-07-23T11:25:51.067Z,2.60
2018-07-23T11:28:20.213Z,2.08
2018-07-23T11:30:49.188Z,1.70
2018-07-23T11:33:18.206Z,2.37
2018-07-23T11:35:46.919Z,1.80
2018-07-23T11:38:15.801Z,1.72
2018-07-23T11:40:44.735Z,2.08
2018-07-23T11:43:13.740Z,2.62
2018-07-23T11:45:43.031Z,2.00
2018-07-23T11:48:12.046Z,2.00
2018-07-23T11:50:42.052Z,2.10
2018-07-23T11:53:11.459Z,2.42
2018-07-23T11:55:40.406Z,3.15
2018-07-23T11:58:09.363Z,1.85
2018-07-23T12:00:38.409Z,2.30
2018-07-23T12:03:07.386Z,1.90
2018-07-23T12:05:36.631Z,2.05
2018-07-23T12:08:05.735Z,2.25
2018-07-23T12:10:34.695Z,2.22
2018-07-23T12:13:03.558Z,1.92
2018-07-23T12:15:32.910Z,1.82
2018-07-23T12:18:01.902Z,2.72
2018-07-23T12:20:30.876Z,2.80
2018-07-23T12:22:59.822Z,2.60
2018-07-23T12:25:28.822Z,2.30
2018-07-23T12:27:57.830Z,2.00
2018-07-23T12:30:26.906Z,2.63
2018-07-23T12:32:55.999Z,2.67
2018-07-23T12:35:25.101Z,3.02
2018-07-23T12:37:54.221Z,2.55
2018-07-23T12:40:23.405Z,2.50
2018-07-23T12:42:52.423Z,3.27
2018-07-23T12:45:21.354Z,2.43
2018-07-23T12:47:50.803Z,3.02
2018-07-23T12:50:20.000Z,3.10
2018-07-23T12:52:49.082Z,2.95
2018-07-23T12:55:18.188Z,2.77
2018-07-23T12:57:47.140Z,3.15
2018-07-23T13:00:16.183Z,3.90
2018-07-23T13:02:44.971Z,3.10
2018-07-23T13:05:14.777Z,3.17
2018-07-23T13:07:43.799Z,2.40
2018-07-23T13:10:12.872Z,3.42
2018-07-23T13:12:41.956Z,2.45
2018-07-23T13:15:11.122Z,3.02
2018-07-23T13:17:41.016Z,4.58
2018-07-23T13:20:10.010Z,2.50
2018-07-23T13:22:39.094Z,2.67
2018-07-23T13:25:08.209Z,3.70
2018-07-23T13:27:37.186Z,2.80
2018-07-23T13:30:06.393Z,3.00
2018-07-23T13:32:35.950Z,3.45
2018-07-23T13:35:05.159Z,3.12
2018-07-23T13:37:34.179Z,4.67
2018-07-23T13:40:03.287Z,2.40
2018-07-23T13:42:32.387Z,2.85
2018-07-23T13:45:01.402Z,2.30
2018-07-23T13:47:30.438Z,3.15
2018-07-23T13:49:59.946Z,2.70
2018-07-23T13:52:29.090Z,3.95
2018-07-23T13:54:58.140Z,3.45
2018-07-23T13:57:27.172Z,3.10
2018-07-23T13:59:56.201Z,2.70
2018-07-23T14:02:25.165Z,4.60
2018-07-23T14:04:54.135Z,2.92
2018-07-23T14:07:23.195Z,2.67
2018-07-23T14:09:52.291Z,2.90
2018-07-23T14:12:21.872Z,3.12
2018-07-23T14:14:50.801Z,2.90
2018-07-23T14:17:19.680Z,3.77
2018-07-23T14:19:48.646Z,3.58
2018-07-23T14:22:17.315Z,2.67
2018-07-23T14:24:46.224Z,2.47
2018-07-23T14:27:15.241Z,3.22
2018-07-23T14:29:44.181Z,3.08
2018-07-23T14:32:13.202Z,3.77
2018-07-23T14:34:42.168Z,2.20
2018-07-23T14:37:11.160Z,2.50
2018-07-23T14:39:40.112Z,2.35
2018-07-23T14:42:09.048Z,2.55
2018-07-23T14:44:38.126Z,2.80
2018-07-23T14:47:07.115Z,3.00
2018-07-23T14:49:36.112Z,2.37
2018-07-23T14:52:05.050Z,2.25
2018-07-23T14:54:34.058Z,3.02
2018-07-23T14:57:03.050Z,2.17
2018-07-23T14:59:32.071Z,2.72
2018-07-23T15:02:01.102Z,2.47
2018-07-23T15:04:30.080Z,2.92
2018-07-23T15:06:59.174Z,3.98
2018-07-23T15:09:28.823Z,2.80
2018-07-23T15:11:57.797Z,4.35
2018-07-23T15:14:26.761Z,3.00
2018-07-23T15:16:55.755Z,2.60
2018-07-23T15:19:24.759Z,7.40
2018-07-23T15:21:53.920Z,6.47
2018-07-23T15:24:22.914Z,1.97
2018-07-23T15:26:51.980Z,2.47
2018-07-23T15:29:21.129Z,1.87
2018-07-23T15:31:50.648Z,4.00
2018-07-23T15:34:20.134Z,3.70
2018-07-23T15:36:49.560Z,2.60
2018-07-23T15:39:18.532Z,3.30
2018-07-23T15:41:47.487Z,3.00
2018-07-23T15:44:16.737Z,4.23
2018-07-23T15:46:45.663Z,2.10
2018-07-23T15:49:14.753Z,1.70
2018-07-23T15:51:43.709Z,2.23
2018-07-23T15:54:12.688Z,2.20
2018-07-23T15:56:42.584Z,2.87
2018-07-23T15:59:11.639Z,2.20
2018-07-23T16:01:40.619Z,2.30
2018-07-23T16:04:09.703Z,4.17
2018-07-23T16:06:38.721Z,3.00
2018-07-23T16:09:10.396Z,2.40
2018-07-23T16:11:39.396Z,4.63
2018-07-23T16:14:08.414Z,2.57
2018-07-23T16:16:37.541Z,2.43
2018-07-23T16:19:07.293Z,3.57
2018-07-23T16:21:36.263Z,2.83
2018-07-23T16:24:05.280Z,4.13
2018-07-23T16:26:34.334Z,4.10
2018-07-23T16:29:03.015Z,2.97
2018-07-23T16:31:31.886Z,2.53
2018-07-23T16:34:00.858Z,2.63
2018-07-23T16:36:29.835Z,3.23
2018-07-23T16:38:58.801Z,3.73
2018-07-23T16:41:28.054Z,2.53
2018-07-23T16:43:57.112Z,3.73
2018-07-23T16:46:25.755Z,2.40
2018-07-23T16:48:57.629Z,2.88
2018-07-23T16:51:26.707Z,2.53
2018-07-23T16:53:56.311Z,3.90
2018-07-23T16:56:25.334Z,7.20
2018-07-23T16:58:54.310Z,5.57
2018-07-23T17:01:23.315Z,3.57
2018-07-23T17:03:52.386Z,3.47
2018-07-23T17:06:21.401Z,4.93
2018-07-23T17:08:50.392Z,5.37
2018-07-23T17:11:20.371Z,4.00
2018-07-23T17:13:49.375Z,2.33
2018-07-23T17:16:18.448Z,3.27
2018-07-23T17:18:47.457Z,3.40
2018-07-23T17:21:16.482Z,5.03
2018-07-23T17:23:45.575Z,7.00
2018-07-23T17:26:14.620Z,3.10
2018-07-23T17:28:43.602Z,3.63
2018-07-23T17:31:12.723Z,3.20
2018-07-23T17:33:42.205Z,5.63
2018-07-23T17:36:11.272Z,3.17
2018-07-23T17:38:40.269Z,5.93
2018-07-23T17:41:09.307Z,5.93
2018-07-23T17:43:38.802Z,3.77
2018-07-23T17:46:07.822Z,3.77
2018-07-23T17:48:37.544Z,7.20
2018-07-23T17:51:06.636Z,2.77
2018-07-23T17:53:36.551Z,4.10
2018-07-23T17:56:05.663Z,3.77
2018-07-23T17:58:35.269Z,4.47
2018-07-23T18:01:04.329Z,3.83
2018-07-23T18:03:33.326Z,3.30
2018-07-23T18:06:02.768Z,4.30
2018-07-23T18:08:31.906Z,3.47
2018-07-23T18:11:00.899Z,3.10
2018-07-23T18:13:29.861Z,2.93
2018-07-23T18:15:58.915Z,4.73
2018-07-23T18:18:28.929Z,6.07
2018-07-23T18:20:57.933Z,2.97
2018-07-23T18:23:26.915Z,3.30
2018-07-23T18:25:55.912Z,3.20
2018-07-23T18:28:24.898Z,5.87
2018-07-23T18:30:53.896Z,3.93
2018-07-23T18:33:22.896Z,5.03
2018-07-23T18:35:51.902Z,5.43
2018-07-23T18:38:20.983Z,2.70
2018-07-23T18:40:50.139Z,2.80
2018-07-23T18:43:19.150Z,4.50
2018-07-23T18:45:48.124Z,4.33
2018-07-23T18:49:35.918Z,3.47
2018-07-23T18:52:05.015Z,2.57
2018-07-23T18:54:34.513Z,3.43
2018-07-23T18:57:05.771Z,3.97
2018-07-23T18:59:35.175Z,4.40
2018-07-23T19:02:07.534Z,3.90
2018-07-23T19:04:36.555Z,3.53
2018-07-23T19:07:06.480Z,3.00
2018-07-23T19:09:35.655Z,4.23
2018-07-23T19:12:04.864Z,4.63
2018-07-23T19:14:33.876Z,2.80
2018-07-23T19:17:03.880Z,3.70
2018-07-23T19:19:32.965Z,3.00
2018-07-23T19:22:02.015Z,4.73
2018-07-23T19:24:31.037Z,2.97
2018-07-23T19:27:00.386Z,3.07
2018-07-23T19:29:29.463Z,3.80
2018-07-23T19:31:58.589Z,2.97
2018-07-23T19:34:27.708Z,3.30
2018-07-23T19:36:56.720Z,3.83
2018-07-23T19:39:26.108Z,3.20
2018-07-23T19:41:55.205Z,2.77
2018-07-23T19:44:24.182Z,3.23
2018-07-23T19:46:53.175Z,3.67
2018-07-23T19:49:22.294Z,4.70
2018-07-23T19:51:51.464Z,3.33
2018-07-23T19:54:20.499Z,3.20
2018-07-23T19:56:49.614Z,5.90
2018-07-23T19:59:18.648Z,3.30
2018-07-23T20:01:47.655Z,3.73
2018-07-23T20:04:16.761Z,5.10
2018-07-23T20:06:45.729Z,3.90
2018-07-23T20:09:14.662Z,4.07
2018-07-23T20:11:43.521Z,4.00
2018-07-23T20:14:12.561Z,3.87
2018-07-23T20:16:41.643Z,10.43
2018-07-23T20:19:10.634Z,4.80
2018-07-23T20:21:39.722Z,4.00
2018-07-23T20:24:08.803Z,5.43
2018-07-23T20:26:37.787Z,4.47
2018-07-23T20:29:07.066Z,3.87
2018-07-23T20:31:36.146Z,3.87
2018-07-23T20:34:05.199Z,4.03
2018-07-23T20:36:34.206Z,3.83
2018-07-23T20:39:03.815Z,3.63
2018-07-23T20:41:32.774Z,7.50
2018-07-23T20:44:01.739Z,3.27
2018-07-23T20:46:30.717Z,3.90
2018-07-23T20:48:59.934Z,4.83
2018-07-23T20:51:28.942Z,3.90
2018-07-23T20:53:58.027Z,4.47
2018-07-23T20:56:27.073Z,4.90
2018-07-23T20:58:56.007Z,4.20
2018-07-23T21:01:25.083Z,3.37
2018-07-23T21:03:54.070Z,3.80
2018-07-23T21:06:23.064Z,5.27
2018-07-23T21:08:52.037Z,5.03
2018-07-23T21:11:21.235Z,4.03
2018-07-23T21:13:50.227Z,3.90
2018-07-23T21:16:19.266Z,4.53
2018-07-23T21:18:48.241Z,3.67
2018-07-23T21:21:17.246Z,3.83
2018-07-23T21:23:46.227Z,7.10
2018-07-23T21:26:15.174Z,4.03
2018-07-23T21:28:44.167Z,5.57
2018-07-23T21:31:13.268Z,5.43
2018-07-23T21:33:42.299Z,4.27
2018-07-23T21:36:11.263Z,6.17
2018-07-23T21:38:40.248Z,3.90
2018-07-23T21:41:09.333Z,4.20
2018-07-23T21:43:38.348Z,4.93
2018-07-23T21:46:07.064Z,3.77
2018-07-23T21:48:36.065Z,4.00
2018-07-23T21:51:05.095Z,4.00
2018-07-23T21:53:34.063Z,6.73
2018-07-23T21:56:03.097Z,4.27
2018-07-23T21:58:32.701Z,4.20
2018-07-23T22:01:01.748Z,3.93
2018-07-23T22:03:30.720Z,4.93
2018-07-23T22:05:59.780Z,4.20
2018-07-23T22:08:28.691Z,5.73
2018-07-23T22:10:57.648Z,4.27
2018-07-23T22:13:26.650Z,4.50
2018-07-23T22:15:55.693Z,3.87
2018-07-23T22:18:24.714Z,4.60
2018-07-23T22:20:53.708Z,5.03
2018-07-23T22:23:22.717Z,5.83
2018-07-23T22:25:51.746Z,4.57
2018-07-23T22:28:20.684Z,4.73
2018-07-23T22:30:49.665Z,5.03
2018-07-23T22:33:18.663Z,5.77
2018-07-23T22:35:47.613Z,7.13
2018-07-23T22:38:16.988Z,6.20
2018-07-23T22:40:45.696Z,5.20
2018-07-23T22:43:14.633Z,6.07
2018-07-23T22:45:43.679Z,6.17
2018-07-23T22:48:12.798Z,6.50
2018-07-23T22:50:41.886Z,5.10
2018-07-23T22:53:10.883Z,7.20
2018-07-23T22:55:39.870Z,7.47
2018-07-23T22:58:08.578Z,6.97
2018-07-23T23:00:37.486Z,5.50
2018-07-23T23:03:06.437Z,5.93
2018-07-23T23:05:35.433Z,7.47
2018-07-23T23:08:04.432Z,7.90
2018-07-23T23:10:33.439Z,6.10
2018-07-23T23:13:02.151Z,7.43
2018-07-23T23:15:31.058Z,7.47
2018-07-23T23:18:00.106Z,6.33
2018-07-23T23:20:28.786Z,7.17
2018-07-23T23:22:57.357Z,5.73
2018-07-23T23:25:26.272Z,5.53
2018-07-23T23:27:55.248Z,7.27
2018-07-23T23:30:24.415Z,7.37
2018-07-23T23:32:53.379Z,8.23
2018-07-23T23:35:22.386Z,7.17
2018-07-23T23:37:51.334Z,6.03
2018-07-23T23:40:20.822Z,6.47
2018-07-23T23:42:49.800Z,6.73
2018-07-23T23:45:18.761Z,6.27
2018-07-23T23:47:47.446Z,6.27
2018-07-23T23:50:16.481Z,6.93
2018-07-23T23:52:45.515Z,6.27
2018-07-23T23:55:14.579Z,6.97
2018-07-23T23:57:43.573Z,5.97
